Flight Briefing for CPX224

Departure Arrival
Los Angeles International Airport (KLAX)
Click to view FAA NOTAMS
Ted Stevens Anchorage International Airport (PANC)
Click to view FAA NOTAMS
Departure Time Arrival Time
1730 UTC 2210 UTC
Aircraft Distance
B767-300BDSF 2089nm
Departure METAR Arrival METAR
KLAX 190653Z 11005KT 7SM FEW007 FEW018 14/12 A2999 RMK AO2 SLP152 T01390122 PANC 190653Z 15017G23KT 10SM FEW050 SCT070 BKN090 05/00 A2949 RMK AO2 PK WND 15031/0634 SLP987 T00500000
Suggested Route
SUMMR1 SCTRR PYE J143 ENI FOT BOXER B453 MDO WITTI4


View recent IFR Routes data
Notes



Charts and Procedures

Charts for KLAX
No chart available
Charts for PANC
No chart available

Windy.com Weather Map